Time;durP1;ratioP1;P1;durP2;ratioP2;P2;SDS_P1;SDS_P2;PMS_P1;PMS_P2;Temp;Humidity;BMP_temperature;BMP_pressure;BME280_temperature;BME280_humidity;BME280_pressure;Samples;Min_cycle;Max_cycle;Signal;HPM_P1;HPM_P2
2023/04/28 03:52:08;;;;;;;7.60;5.25;;;;;;;3.70;100.00;101007.81;5580403;27;20145;-86
2023/04/28 03:55:12;;;;;;;9.90;6.40;;;;;;;3.68;100.00;101010.56;5398940;33;34711;-85
2023/04/28 03:58:15;;;;;;;12.02;6.90;;;;;;;3.66;100.00;101008.97;5386123;33;33955;-86
2023/04/28 04:01:17;;;;;;;12.23;7.32;;;;;;;3.65;100.00;101013.47;5386321;33;34400;-86
2023/04/28 04:04:23;;;;;;;14.35;7.47;;;;;;;3.66;100.00;101023.16;5415137;32;33861;-86
2023/04/28 04:07:26;;;;;;;12.63;7.50;;;;;;;3.66;100.00;101030.28;5403432;33;35227;-86
2023/04/28 04:10:30;;;;;;;12.55;6.37;;;;;;;3.74;100.00;101023.41;5398816;33;33940;-86
2023/04/28 04:13:33;;;;;;;10.18;6.70;;;;;;;3.80;100.00;101014.97;5373861;33;33891;-87
2023/04/28 04:16:37;;;;;;;12.60;7.57;;;;;;;3.87;100.00;101024.19;5398899;33;34507;-87
2023/04/28 04:19:40;;;;;;;12.23;7.30;;;;;;;3.97;100.00;101026.13;5375304;33;34543;-87
2023/04/28 04:22:45;;;;;;;13.70;7.28;;;;;;;4.02;100.00;101030.13;5385480;33;32474;-91
2023/04/28 04:25:48;;;;;;;14.70;7.87;;;;;;;4.11;100.00;101027.72;5385190;33;34015;-91
2023/04/28 04:28:52;;;;;;;12.00;7.15;;;;;;;4.18;100.00;101036.91;5398718;33;33917;-92
2023/04/28 04:31:55;;;;;;;14.98;7.82;;;;;;;4.31;100.00;101033.16;5398463;33;34530;-88
2023/04/28 04:34:58;;;;;;;12.70;6.53;;;;;;;4.48;100.00;101033.66;5384858;33;33647;-87
2023/04/28 04:38:02;;;;;;;8.52;5.32;;;;;;;4.75;100.00;101034.09;5375603;33;34230;-87
2023/04/28 04:41:05;;;;;;;8.80;5.68;;;;;;;4.95;98.93;101039.66;5402718;33;33778;-87
2023/04/28 04:44:08;;;;;;;10.18;5.85;;;;;;;5.17;95.95;101038.72;5401614;33;34665;-87
2023/04/28 04:47:13;;;;;;;9.68;5.80;;;;;;;5.38;94.71;101036.09;5387458;33;33905;-87
2023/04/28 04:50:16;;;;;;;9.75;5.35;;;;;;;5.62;93.14;101027.84;5374962;32;33763;-88
2023/04/28 04:53:19;;;;;;;6.72;5.03;;;;;;;5.80;92.38;101030.78;5398889;33;33659;-87
2023/04/28 04:56:22;;;;;;;11.82;6.03;;;;;;;5.91;88.95;101031.56;5385023;33;34281;-87
2023/04/28 04:59:25;;;;;;;9.27;5.60;;;;;;;6.10;87.84;101030.00;5373174;33;34219;-87
2023/04/28 05:02:29;;;;;;;8.77;5.68;;;;;;;6.26;86.73;101027.69;5385347;33;34486;-87
2023/04/28 05:05:33;;;;;;;12.63;6.30;;;;;;;6.45;84.89;101028.75;5384961;33;33727;-87
2023/04/28 05:08:36;;;;;;;11.65;6.37;;;;;;;6.50;84.79;101029.19;5381086;33;33783;-87
2023/04/28 05:11:40;;;;;;;7.75;4.97;;;;;;;6.65;84.19;101035.00;5381983;33;33723;-87
2023/04/28 05:14:42;;;;;;;9.77;5.80;;;;;;;6.84;82.75;101031.53;5398037;33;33964;-87
2023/04/28 05:17:46;;;;;;;8.05;5.30;;;;;;;7.09;82.45;101033.69;5385089;33;33805;-87
2023/04/28 05:20:49;;;;;;;9.10;5.78;;;;;;;7.14;79.73;101035.97;5384887;33;34559;-87
2023/04/28 05:23:53;;;;;;;12.05;5.37;;;;;;;7.40;79.11;101030.88;5383965;33;33374;-87
2023/04/28 05:26:57;;;;;;;8.38;5.70;;;;;;;7.64;79.57;101039.34;5395168;32;34389;-87
2023/04/28 05:30:00;;;;;;;10.45;5.90;;;;;;;7.78;77.96;101043.44;5402737;32;34724;-87
2023/04/28 05:33:04;;;;;;;11.32;6.47;;;;;;;7.90;75.37;101036.06;5373662;33;33718;-87
2023/04/28 05:36:08;;;;;;;10.43;6.40;;;;;;;7.88;74.17;101044.25;5376383;32;34474;-88
2023/04/28 05:39:12;;;;;;;12.37;7.32;;;;;;;7.95;73.07;101042.66;5385625;33;35286;-88
2023/04/28 05:42:16;;;;;;;11.57;6.43;;;;;;;8.18;72.78;101043.16;5387257;33;34671;-87
2023/04/28 05:45:19;;;;;;;11.20;6.50;;;;;;;8.21;72.36;101035.84;5384658;33;34004;-87
2023/04/28 05:48:22;;;;;;;10.27;6.25;;;;;;;8.35;70.47;101040.72;5381523;33;33321;-87
2023/04/28 05:51:26;;;;;;;11.20;6.20;;;;;;;8.43;70.52;101043.56;5385119;32;35112;-88
2023/04/28 05:54:29;;;;;;;12.07;6.28;;;;;;;8.66;69.78;101033.28;5367218;33;34066;-87
2023/04/28 05:57:32;;;;;;;14.57;7.30;;;;;;;8.83;69.43;101043.22;5396104;33;33641;-87
2023/04/28 06:00:53;;;;;;;14.65;6.93;;;;;;;9.19;66.17;101050.50;5375212;33;33804;-87
2023/04/28 06:03:59;;;;;;;11.07;6.97;;;;;;;9.49;66.45;101041.19;5369242;33;33734;-88
2023/04/28 06:07:03;;;;;;;10.88;7.53;;;;;;;9.69;64.72;101048.09;5384764;33;33257;-87
2023/04/28 06:10:08;;;;;;;11.10;6.57;;;;;;;9.95;63.98;101045.44;5384460;33;34501;-87
2023/04/28 06:13:11;;;;;;;11.57;7.80;;;;;;;9.80;63.80;101048.81;5384483;33;34577;-88
2023/04/28 06:16:17;;;;;;;11.73;6.87;;;;;;;9.61;63.95;101048.00;5398109;33;33680;-90
2023/04/28 06:19:21;;;;;;;13.10;7.43;;;;;;;9.77;63.44;101053.53;5373761;33;34803;-92
2023/04/28 06:22:25;;;;;;;11.38;7.10;;;;;;;10.03;61.87;101047.31;5396342;33;35095;-92
2023/04/28 06:25:28;;;;;;;11.18;6.55;;;;;;;10.18;61.09;101051.13;5399748;33;33752;-89
2023/04/28 06:28:31;;;;;;;10.45;7.10;;;;;;;10.60;61.16;101052.22;5386337;33;34037;-88
2023/04/28 06:31:34;;;;;;;13.77;7.50;;;;;;;11.04;58.13;101044.81;5401848;33;34617;-87
2023/04/28 06:34:37;;;;;;;10.40;7.20;;;;;;;11.16;56.82;101049.88;5397145;33;34412;-88
2023/04/28 06:37:41;;;;;;;12.05;7.32;;;;;;;11.53;58.23;101052.12;5381160;33;33846;-87
2023/04/28 06:40:44;;;;;;;10.57;7.50;;;;;;;11.50;56.26;101058.69;5378049;33;33694;-87
2023/04/28 06:43:48;;;;;;;12.52;7.45;;;;;;;11.85;56.11;101054.03;5393922;33;34021;-87
2023/04/28 06:46:53;;;;;;;14.00;9.00;;;;;;;12.18;56.07;101051.28;5402603;33;33490;-88
2023/04/28 06:49:56;;;;;;;11.20;7.70;;;;;;;12.12;54.69;101046.56;5402563;33;35265;-88
2023/04/28 06:53:00;;;;;;;13.65;7.78;;;;;;;12.30;53.80;101046.34;5402745;32;34136;-87
2023/04/28 06:56:04;;;;;;;15.48;9.10;;;;;;;12.29;52.30;101047.37;5401206;32;34968;-88
2023/04/28 06:59:08;;;;;;;17.77;7.93;;;;;;;12.02;53.75;101041.34;5414582;32;34920;-87
2023/04/28 07:02:12;;;;;;;14.73;7.90;;;;;;;11.99;54.49;101049.78;5413320;33;34244;-87
2023/04/28 07:05:15;;;;;;;13.20;7.78;;;;;;;12.01;53.75;101048.59;5413240;32;34725;-87
2023/04/28 07:08:18;;;;;;;12.00;6.82;;;;;;;12.22;51.74;101045.34;5397376;33;35135;-87
2023/04/28 07:11:22;;;;;;;11.55;7.90;;;;;;;12.70;53.35;101038.13;5397912;33;34322;-87
2023/04/28 07:14:25;;;;;;;10.65;7.22;;;;;;;13.18;48.97;101038.03;5397215;33;33876;-87
2023/04/28 07:17:28;;;;;;;12.57;6.90;;;;;;;13.04;49.35;101038.78;5412755;32;34736;-88
2023/04/28 07:20:30;;;;;;;13.32;6.85;;;;;;;12.86;50.50;101028.25;5396805;32;33807;-87
2023/04/28 07:23:33;;;;;;;12.50;7.22;;;;;;;12.91;49.38;101031.25;5384557;33;33802;-87
2023/04/28 07:26:36;;;;;;;9.77;6.10;;;;;;;13.11;48.60;101026.25;5379052;32;34698;-87
2023/04/28 07:29:39;;;;;;;13.40;6.62;;;;;;;13.46;50.20;101029.44;5388109;32;34816;-87
2023/04/28 07:32:42;;;;;;;12.60;7.25;;;;;;;13.69;47.16;101023.97;5390602;32;33446;-87
2023/04/28 07:35:45;;;;;;;10.40;6.40;;;;;;;13.94;46.93;101022.72;5388233;32;33210;-87
2023/04/28 07:38:48;;;;;;;7.82;5.85;;;;;;;13.93;49.17;101023.78;5389150;32;34437;-88
2023/04/28 07:41:51;;;;;;;14.02;6.40;;;;;;;14.08;47.85;101023.78;5374338;32;34826;-86
2023/04/28 07:44:57;;;;;;;9.90;5.87;;;;;;;14.35;46.45;101024.19;5390583;33;34051;-89
2023/04/28 07:48:00;;;;;;;11.98;6.82;;;;;;;14.31;46.22;101021.00;5397496;33;34212;-87
2023/04/28 07:51:03;;;;;;;12.40;6.90;;;;;;;14.55;44.18;101027.19;5385667;33;33999;-87
2023/04/28 07:54:06;;;;;;;9.88;6.05;;;;;;;14.77;43.03;101011.84;5384903;33;34622;-88
2023/04/28 07:57:09;;;;;;;12.25;6.25;;;;;;;14.68;42.35;101003.84;5394333;32;33571;-88
2023/04/28 08:00:13;;;;;;;9.77;6.05;;;;;;;14.50;42.94;101011.47;5371892;33;34775;-89
2023/04/28 08:03:16;;;;;;;10.68;6.18;;;;;;;14.34;43.60;101004.38;5412437;32;33799;-87
2023/04/28 08:06:20;;;;;;;9.60;6.10;;;;;;;14.40;43.08;101002.78;5387232;33;34341;-90
2023/04/28 08:09:23;;;;;;;8.80;5.57;;;;;;;14.47;43.07;100985.59;5379917;32;34413;-87
2023/04/28 08:12:26;;;;;;;10.82;5.53;;;;;;;14.54;42.66;100984.84;5388833;33;32863;-89
2023/04/28 08:15:29;;;;;;;7.57;4.70;;;;;;;14.67;42.72;100979.63;5400228;33;33547;-87
2023/04/28 08:18:32;;;;;;;9.10;5.00;;;;;;;14.70;40.23;100985.50;5394268;33;36613;-88
2023/04/28 08:21:46;;;;;;;11.30;5.05;;;;;;;14.78;41.78;100976.41;5385623;33;35328;-88
2023/04/28 08:24:49;;;;;;;8.05;5.03;;;;;;;14.85;40.03;100962.94;5369543;33;34133;-92
2023/04/28 08:27:54;;;;;;;5.78;4.65;;;;;;;14.83;39.06;100959.56;5364667;33;34166;-92
2023/04/28 08:30:59;;;;;;;9.45;5.15;;;;;;;14.60;40.51;100952.44;5383869;33;34849;-92
2023/04/28 08:34:03;;;;;;;8.55;4.90;;;;;;;15.12;39.51;100955.91;5394514;32;33741;-88
2023/04/28 08:37:05;;;;;;;7.82;4.80;;;;;;;15.07;38.92;100952.97;5385113;33;34084;-88
2023/04/28 08:40:09;;;;;;;6.65;4.72;;;;;;;14.97;40.02;100955.97;5383883;33;33589;-88
2023/04/28 08:43:13;;;;;;;5.85;4.68;;;;;;;14.92;38.02;100956.56;5396525;33;34539;-88
2023/04/28 08:46:18;;;;;;;8.65;4.95;;;;;;;15.18;37.24;100936.16;5384420;33;33956;-88
2023/04/28 08:49:30;;;;;;;8.88;4.80;;;;;;;15.37;37.01;100949.06;5384776;33;33879;-88
2023/04/28 08:52:34;;;;;;;9.43;4.10;;;;;;;15.26;37.33;100941.44;5395929;32;32614;-88
2023/04/28 08:55:37;;;;;;;5.57;3.78;;;;;;;15.48;35.55;100936.00;5396971;32;33973;-88
2023/04/28 08:58:40;;;;;;;7.93;4.22;;;;;;;15.82;36.05;100930.66;5400038;33;33720;-88
2023/04/28 09:01:48;;;;;;;5.28;3.65;;;;;;;16.44;35.43;100928.91;5375439;32;34424;-88
2023/04/28 09:04:51;;;;;;;6.97;4.00;;;;;;;16.58;34.64;100942.53;5396653;33;34529;-88
2023/04/28 09:07:55;;;;;;;9.63;3.75;;;;;;;16.30;34.68;100940.75;5389061;33;34481;-87
2023/04/28 09:11:07;;;;;;;8.45;4.03;;;;;;;16.51;34.91;100923.47;5400582;33;35317;-88
2023/04/28 09:14:12;;;;;;;6.07;3.90;;;;;;;16.82;35.83;100933.00;5377599;33;33775;-88
2023/04/28 09:17:16;;;;;;;6.10;3.60;;;;;;;16.95;33.93;100938.50;5370001;33;33987;-88
2023/04/28 09:20:23;;;;;;;7.15;3.25;;;;;;;17.10;33.93;100930.97;5385111;32;34804;-88
2023/04/28 09:23:26;;;;;;;6.30;3.42;;;;;;;17.12;33.03;100923.47;5395733;32;33402;-88
2023/04/28 09:26:49;;;;;;;4.60;3.40;;;;;;;17.21;33.81;100924.94;5393466;32;34503;-88
2023/04/28 09:29:53;;;;;;;8.85;3.50;;;;;;;17.10;32.52;100922.81;5386585;32;33851;-88
2023/04/28 09:33:07;;;;;;;5.03;3.37;;;;;;;16.94;35.01;100929.50;5390498;32;34490;-88
2023/04/28 09:36:26;;;;;;;9.52;3.37;;;;;;;17.26;34.01;100926.16;5395142;33;33627;-88
2023/04/28 09:39:31;;;;;;;4.37;3.37;;;;;;;17.38;32.10;100914.47;5400142;33;34636;-87
2023/04/28 09:42:43;;;;;;;8.25;3.47;;;;;;;17.60;34.11;100915.06;5386455;33;34269;-91
2023/04/28 09:45:45;;;;;;;4.25;3.15;;;;;;;18.12;30.99;100915.22;5366528;33;34247;-88
2023/04/28 09:48:48;;;;;;;5.10;3.58;;;;;;;17.87;30.89;100901.44;5377885;33;33792;-88
2023/04/28 09:51:51;;;;;;;5.12;3.37;;;;;;;18.00;31.79;100906.03;5385225;33;33916;-88
2023/04/28 09:54:55;;;;;;;7.18;3.87;;;;;;;17.73;30.90;100900.63;5384172;33;34542;-88
2023/04/28 09:58:04;;;;;;;4.87;3.25;;;;;;;18.12;30.99;100893.41;5386107;33;147203;-88
2023/04/28 10:01:10;;;;;;;6.15;3.30;;;;;;;18.51;31.21;100897.03;5396388;33;34858;-87
2023/04/28 10:04:14;;;;;;;5.95;3.10;;;;;;;18.99;31.32;100891.13;5397072;33;34789;-88
2023/04/28 10:07:19;;;;;;;6.12;3.37;;;;;;;18.65;29.32;100895.06;5382106;33;33784;-87
2023/04/28 10:10:24;;;;;;;5.62;3.12;;;;;;;18.41;29.59;100886.59;5371033;33;34630;-87
2023/04/28 10:13:26;;;;;;;5.05;3.30;;;;;;;18.07;31.32;100885.88;5396354;33;33425;-88
2023/04/28 10:16:31;;;;;;;5.43;3.20;;;;;;;18.11;33.16;100883.59;5383975;33;33476;-87
2023/04/28 10:19:36;;;;;;;5.60;3.33;;;;;;;18.11;32.01;100868.06;5383758;33;33802;-87
2023/04/28 10:22:45;;;;;;;7.05;3.28;;;;;;;18.39;30.58;100863.31;5396185;33;33847;-88
2023/04/28 10:25:53;;;;;;;6.32;3.20;;;;;;;18.16;32.22;100861.94;5398038;33;33487;-87
2023/04/28 10:28:57;;;;;;;6.70;3.50;;;;;;;18.46;31.34;100859.53;5391114;33;33309;-87
2023/04/28 10:32:22;;;;;;;9.35;3.72;;;;;;;18.39;30.72;100849.69;5389053;33;34395;-87
2023/04/28 10:35:26;;;;;;;6.12;3.30;;;;;;;18.09;31.25;100839.34;5393934;33;34247;-86
2023/04/28 10:38:29;;;;;;;5.85;3.62;;;;;;;18.31;29.90;100839.88;5402989;32;34021;-87
2023/04/28 10:41:33;;;;;;;6.35;3.40;;;;;;;18.63;29.51;100823.53;5403898;33;34655;-88
2023/04/28 10:44:36;;;;;;;5.20;3.62;;;;;;;19.19;29.95;100826.28;5400036;33;33732;-87
2023/04/28 10:48:11;;;;;;;5.25;3.12;;;;;;;20.13;30.68;100818.78;5395929;33;34180;-88
2023/04/28 10:51:17;;;;;;;4.10;3.25;;;;;;;20.58;27.60;100809.34;5396542;32;33776;-87
2023/04/28 10:54:27;;;;;;;4.68;3.35;;;;;;;20.58;27.77;100820.28;5397900;33;34049;-92
2023/04/28 10:57:31;;;;;;;6.85;3.20;;;;;;;20.13;30.02;100804.28;5399187;32;35368;-88
2023/04/28 11:00:38;;;;;;;6.43;3.28;;;;;;;19.95;28.20;100807.88;5390126;32;33878;-87
2023/04/28 11:03:45;;;;;;;4.90;3.35;;;;;;;19.66;29.86;100799.37;5403794;32;32724;-88
2023/04/28 11:07:08;;;;;;;5.78;3.40;;;;;;;19.85;30.87;100800.19;5417209;32;34058;-88
2023/04/28 11:10:11;;;;;;;5.32;3.08;;;;;;;19.67;30.02;100792.00;5408715;32;35337;-87
2023/04/28 11:13:32;;;;;;;7.30;3.37;;;;;;;19.43;29.79;100794.56;5384611;32;33455;-87
2023/04/28 11:16:49;;;;;;;5.62;2.97;;;;;;;19.73;30.06;100777.44;5417747;32;34266;-87
2023/04/28 11:19:55;;;;;;;5.62;3.17;;;;;;;19.84;29.13;100775.84;5388293;32;33751;-87
2023/04/28 11:22:58;;;;;;;4.80;3.30;;;;;;;20.23;30.22;100776.37;5413506;32;34236;-87
2023/04/28 11:26:01;;;;;;;3.97;2.90;;;;;;;20.22;28.28;100775.53;5395391;32;34488;-88
2023/04/28 11:29:04;;;;;;;6.28;2.95;;;;;;;19.76;29.68;100774.25;5389595;33;33829;-88
2023/04/28 11:32:09;;;;;;;3.42;2.78;;;;;;;19.12;30.34;100772.81;5391646;32;33915;-86
2023/04/28 11:35:12;;;;;;;4.55;2.90;;;;;;;19.03;31.67;100775.00;5407752;32;33589;-87
2023/04/28 11:38:15;;;;;;;3.33;3.00;;;;;;;18.68;32.09;100778.19;5408586;32;34106;-86
2023/04/28 11:41:19;;;;;;;4.78;2.83;;;;;;;18.26;31.74;100766.94;5407524;32;33143;-85
2023/04/28 11:44:27;;;;;;;3.58;2.87;;;;;;;17.89;32.71;100774.88;5405060;32;34228;-86
2023/04/28 11:47:32;;;;;;;7.00;3.35;;;;;;;17.78;32.63;100772.81;5398218;32;34763;-85
2023/04/28 11:50:36;;;;;;;4.93;2.78;;;;;;;17.73;33.37;100778.06;5383217;33;33883;-85
2023/04/28 11:53:44;;;;;;;6.05;2.90;;;;;;;17.96;32.85;100771.28;5396792;33;34435;-85
2023/04/28 11:56:52;;;;;;;4.62;3.22;;;;;;;18.38;32.95;100764.34;5388915;33;34843;-85
2023/04/28 12:00:13;;;;;;;4.43;2.97;;;;;;;18.33;33.04;100756.81;5405250;32;34193;-87
2023/04/28 12:03:17;;;;;;;8.10;3.37;;;;;;;18.07;32.30;100756.97;5379777;33;33929;-86
2023/04/28 12:06:20;;;;;;;6.07;3.05;;;;;;;18.22;33.60;100749.37;5374966;33;33505;-85
2023/04/28 12:09:24;;;;;;;5.62;3.35;;;;;;;18.45;33.09;100745.22;5384716;33;34055;-86
2023/04/28 12:12:30;;;;;;;4.68;3.35;;;;;;;18.83;31.69;100744.31;5371529;32;35061;-86
2023/04/28 12:15:54;;;;;;;4.22;3.15;;;;;;;18.68;32.17;100748.19;5398530;33;33523;-86
2023/04/28 12:19:01;;;;;;;6.40;3.12;;;;;;;18.03;33.20;100744.84;5387250;32;33817;-85
2023/04/28 12:22:08;;;;;;;6.60;3.20;;;;;;;17.97;35.50;100732.94;5403071;32;33985;-86
2023/04/28 12:25:12;;;;;;;5.22;3.25;;;;;;;17.98;33.26;100734.59;5405094;33;34213;-86
2023/04/28 12:28:15;;;;;;;4.25;3.22;;;;;;;17.85;34.20;100737.41;5413211;33;34260;-86
2023/04/28 12:31:18;;;;;;;9.57;3.47;;;;;;;17.28;35.32;100733.59;5381696;32;34236;-86
2023/04/28 12:34:21;;;;;;;6.22;3.10;;;;;;;17.22;35.19;100743.44;5393483;33;33605;-87
2023/04/28 12:37:24;;;;;;;4.90;3.25;;;;;;;17.41;36.16;100733.56;5383409;33;34543;-85
2023/04/28 12:40:27;;;;;;;6.07;3.40;;;;;;;17.49;34.67;100732.47;5395823;33;33421;-85
2023/04/28 12:43:30;;;;;;;7.57;3.53;;;;;;;17.65;34.83;100715.69;5391816;33;35394;-86
2023/04/28 12:46:34;;;;;;;7.75;2.97;;;;;;;18.58;34.11;100701.50;5392294;33;33561;-86
2023/04/28 12:49:37;;;;;;;7.80;3.30;;;;;;;18.95;33.59;100693.41;5394099;33;33574;-86
2023/04/28 12:52:40;;;;;;;3.83;3.00;;;;;;;18.85;33.08;100683.03;5394527;33;34261;-86
2023/04/28 12:55:45;;;;;;;5.00;3.33;;;;;;;19.18;33.25;100673.66;5394704;33;34663;-85
2023/04/28 12:58:48;;;;;;;4.82;3.10;;;;;;;20.26;31.85;100672.84;5394049;33;34643;-86
2023/04/28 13:01:51;;;;;;;7.53;3.40;;;;;;;20.88;31.29;100663.41;5363995;33;34235;-87
2023/04/28 13:04:55;;;;;;;2.97;2.72;;;;;;;20.59;30.87;100647.72;5384099;33;34169;-87
2023/04/28 13:07:58;;;;;;;6.35;3.33;;;;;;;22.17;28.67;100636.47;5383628;33;34124;-87
2023/04/28 13:11:04;;;;;;;8.35;2.87;;;;;;;26.01;24.17;100629.84;5397935;33;32568;-87
2023/04/28 13:14:25;;;;;;;5.28;2.50;;;;;;;26.44;24.15;100627.66;5387659;33;34602;-87
2023/04/28 13:17:28;;;;;;;4.50;2.87;;;;;;;25.53;24.41;100628.34;5404915;33;33604;-86
2023/04/28 13:20:31;;;;;;;4.05;2.37;;;;;;;24.86;25.02;100632.69;5385117;33;33817;-87
2023/04/28 13:23:34;;;;;;;6.35;2.50;;;;;;;24.63;24.30;100634.78;5372231;33;33492;-87
2023/04/28 13:26:37;;;;;;;2.72;2.33;;;;;;;23.21;25.84;100628.66;5397272;33;34050;-87
2023/04/28 13:29:40;;;;;;;5.57;2.72;;;;;;;;;;5384410;33;34098;-87
2023/04/28 13:32:43;;;;;;;4.25;2.60;;;;;;;20.48;30.45;100634.00;5384489;33;33984;-91
2023/04/28 13:35:46;;;;;;;3.53;2.53;;;;;;;20.20;31.48;100637.41;5384073;33;33391;-87
2023/04/28 13:38:50;;;;;;;6.62;3.20;;;;;;;20.09;30.96;100633.56;5397868;33;35606;-87
2023/04/28 13:41:53;;;;;;;4.47;2.62;;;;;;;19.49;33.57;100632.53;5372978;33;33443;-87
2023/04/28 13:44:55;;;;;;;4.22;2.85;;;;;;;19.44;33.70;100626.09;5398222;33;33809;-87
2023/04/28 13:47:58;;;;;;;4.15;2.47;;;;;;;19.07;32.30;100636.19;5384253;33;33462;-86
2023/04/28 13:51:02;;;;;;;4.60;2.50;;;;;;;18.59;34.00;100629.53;5383796;33;33720;-86
2023/04/28 13:54:10;;;;;;;3.30;2.80;;;;;;;18.63;34.91;100614.38;5397963;33;34286;-87
2023/04/28 13:57:13;;;;;;;3.90;2.53;;;;;;;18.36;33.76;100611.06;5384472;33;33931;-86
2023/04/28 14:00:19;;;;;;;6.00;3.25;;;;;;;19.12;32.36;100604.44;5384215;33;34450;-87
2023/04/28 14:03:23;;;;;;;3.75;2.40;;;;;;;19.64;32.29;100598.50;5372503;33;34602;-86
2023/04/28 14:06:26;;;;;;;6.22;2.30;;;;;;;21.38;30.37;100583.44;5383733;33;34207;-86
2023/04/28 14:09:31;;;;;;;4.65;2.42;;;;;;;22.66;27.72;100580.94;5372211;33;34535;-86
2023/04/28 14:12:34;;;;;;;5.07;2.70;;;;;;;21.58;28.67;100569.28;5384150;33;33801;-86
2023/04/28 14:15:38;;;;;;;3.28;2.90;;;;;;;20.40;30.13;100575.00;5395606;33;34908;-86
2023/04/28 14:18:57;;;;;;;9.27;2.62;;;;;;;19.69;31.16;100583.13;5387110;33;34131;-86
2023/04/28 14:22:01;;;;;;;3.75;2.37;;;;;;;19.21;33.13;100581.22;5390611;33;33914;-86
2023/04/28 14:25:04;;;;;;;5.18;2.80;;;;;;;18.91;33.69;100583.91;5360183;33;34647;-86
2023/04/28 14:28:08;;;;;;;3.55;2.58;;;;;;;18.23;35.21;100587.50;5397969;33;33797;-86
2023/04/28 14:31:11;;;;;;;5.87;2.80;;;;;;;18.00;34.41;100581.84;5371798;33;34018;-86
2023/04/28 14:34:14;;;;;;;4.80;2.85;;;;;;;17.71;35.81;100577.81;5371919;33;33912;-86
2023/04/28 14:37:17;;;;;;;5.50;2.70;;;;;;;17.42;35.66;100574.66;5383729;33;34962;-86
2023/04/28 14:40:20;;;;;;;5.22;2.62;;;;;;;17.26;37.38;100573.28;5383107;33;33888;-86
2023/04/28 14:43:23;;;;;;;4.78;3.22;;;;;;;17.28;37.52;100564.88;5383312;33;34327;-86
2023/04/28 14:46:26;;;;;;;5.37;3.03;;;;;;;17.39;38.58;100566.91;5384172;33;34174;-86
2023/04/28 14:49:29;;;;;;;5.90;3.03;;;;;;;17.47;36.93;100561.22;5384120;33;33805;-86
2023/04/28 14:52:32;;;;;;;5.00;2.85;;;;;;;17.56;37.00;100559.91;5383909;33;33727;-86
2023/04/28 14:55:35;;;;;;;6.62;3.60;;;;;;;17.39;38.44;100561.47;5372253;33;33716;-86
2023/04/28 14:58:39;;;;;;;6.60;3.08;;;;;;;17.14;38.67;100556.81;5383635;33;33382;-87
2023/04/28 15:01:42;;;;;;;5.32;2.92;;;;;;;17.22;37.72;100555.69;5398861;33;33798;-86
2023/04/28 15:04:45;;;;;;;6.40;3.15;;;;;;;17.15;38.67;100546.75;5389593;32;33871;-87
2023/04/28 15:07:48;;;;;;;7.35;2.83;;;;;;;17.10;38.56;100541.13;5392491;33;34492;-86
2023/04/28 15:10:52;;;;;;;9.80;3.75;;;;;;;17.29;39.32;100539.34;5397817;33;35062;-86
2023/04/28 15:13:55;;;;;;;4.35;2.78;;;;;;;17.54;39.59;100534.78;5383730;33;34198;-86
2023/04/28 15:16:58;;;;;;;3.40;2.83;;;;;;;17.62;37.65;100544.59;5401184;33;35264;-86
2023/04/28 15:20:01;;;;;;;3.78;3.28;;;;;;;17.54;39.45;100542.13;5401471;32;34945;-85
2023/04/28 15:23:05;;;;;;;7.00;3.03;;;;;;;17.47;38.78;100530.44;5374824;33;35343;-85
2023/04/28 15:26:09;;;;;;;6.78;3.42;;;;;;;17.44;38.90;100529.00;5396055;33;33760;-85
2023/04/28 15:29:12;;;;;;;8.05;5.00;;;;;;;17.43;38.12;100528.16;5396864;33;34052;-85
2023/04/28 15:32:15;;;;;;;8.70;4.25;;;;;;;17.12;38.75;100531.69;5385477;33;34807;-88
2023/04/28 15:35:18;;;;;;;13.57;7.50;;;;;;;17.20;38.75;100528.72;5385425;33;35739;-89
2023/04/28 15:38:21;;;;;;;12.90;7.65;;;;;;;17.03;39.11;100518.56;5373138;33;33818;-89
2023/04/28 15:41:24;;;;;;;14.30;8.55;;;;;;;16.96;39.94;100524.87;5373466;33;33740;-89
2023/04/28 15:44:27;;;;;;;12.30;5.97;;;;;;;16.76;40.46;100521.41;5398557;33;34163;-86
2023/04/28 15:47:32;;;;;;;8.40;5.50;;;;;;;16.81;39.71;100516.13;5361848;33;33920;-85
2023/04/28 15:50:36;;;;;;;10.25;5.47;;;;;;;16.57;40.56;100509.50;5361104;33;33544;-86
2023/04/28 15:53:39;;;;;;;12.00;6.32;;;;;;;16.60;40.78;100505.53;5373596;33;34806;-86
2023/04/28 15:56:42;;;;;;;15.82;7.35;;;;;;;16.50;41.05;100516.84;5385200;33;34363;-86
2023/04/28 15:59:45;;;;;;;21.60;8.57;;;;;;;16.36;42.61;100497.03;5385571;33;33470;-86
